Observations for CHICAGO MIDWAY, IL (MDW)

KMDW 230953Z 33006KT 10SM OVC038 17/16 A2972 RMK AO2 SLP060 T01720156   
KMDW 230924Z 34007KT 10SM SCT019 OVC038 17/16 A2971 RMK AO2 T01720156
KMDW 230853Z 31005KT 9SM BKN019 OVC037 17/16 A2972 RMK AO2 SLP058 60000 T01720161 53000 
KMDW 230753Z 30003KT 8SM OVC019 18/16 A2971 RMK AO2 SLP055 T01780161
KMDW 230725Z 36004KT 7SM OVC016 18/17 A2970 RMK AO2 T01780167
KMDW 230653Z 36004KT 5SM BR OVC014 18/17 A2970 RMK AO2 DZE26 SLP053 P0000 T01780167 
KMDW 230645Z 35005KT 5SM BR OVC014 17/17 A2970 RMK AO2 DZE26 P0000 T01720167
KMDW 230553Z 03006KT 3SM -DZ BR OVC018 17/16 A2971 RMK AO2 SLP059 P0000 60000 T01670161 10178 20161 401830161 56003 
KMDW 230529Z 01006KT 4SM -DZ BR OVC018 17/16 A2972 RMK AO2 P0000 T01670161
KMDW 230453Z 02011KT 2 1/2SM -DZ BR FEW007 OVC016 17/16 A2972 RMK AO2 DZB09 SLP061 P0000 T01670156  
KMDW 230353Z 03008KT 9SM OVC016 17/16 A2972 RMK AO2 DZB0257E52 SLP060 P0000 T01720156   
KMDW 230332Z 02008KT 9SM -DZ OVC015 17/16 A2972 RMK AO2 DZB0257 P0000 T01670156
KMDW 230253Z 01010KT 7SM FEW010 OVC013 17/15 A2973 RMK AO2 DZB27E43 SLP063 P0000 60000 T01670150 53001  
KMDW 230153Z 01010KT 9SM FEW010 OVC013 17/15 A2972 RMK AO2 SLP060 T01670150 
KMDW 230115Z 01011KT 9SM FEW010 OVC013 16/15 A2972 RMK AO2 T01610150
KMDW 230053Z 01012KT 7SM SCT010 OVC015 16/15 A2972 RMK AO2 RAB05E43 SLP061 P0000 T01610150  
KMDW 222353Z 01010KT 9SM OVC012 17/15 A2972 RMK AO2 SLP062 60000 T01670150 10178 20167 56004
KMDW 222253Z 01010KT 9SM OVC012 17/15 A2973 RMK AO2 SLP063 T01670150
KMDW 222153Z 02009KT 10SM FEW010 OVC013 17/16 A2972 RMK AO2 DZB01E35 SLP060 P0000 T01720156 
KMDW 222053Z 03012KT 10SM FEW007 OVC013 17/15 A2973 RMK AO2 SLP064 60000 T01720150 55002
KMDW 222042Z 03010KT 10SM FEW007 OVC013 18/15 A2973 RMK AO2 T01780150
KMDW 221953Z 05014KT 10SM OVC012 18/15 A2973 RMK AO2 SLP063 T01780150   
KMDW 221853Z 06015KT 10SM OVC009 17/15 A2974 RMK AO2 DZE03 SLP066 P0000 T01670150   
KMDW 221753Z 05011KT 3SM -DZ BR OVC006 17/16 A2974 RMK AO2 SLP066 P0000 60073 T01670161 10172 20161 58006 $ 
KMDW 221653Z 03015KT 4SM -DZ BR OVC007 17/16 A2975 RMK AO2 SLP070 P0001 T01670156 $ 
KMDW 221646Z 04015KT 3SM -DZ BR OVC007 17/16 A2975 RMK AO2 P0001 T01670161 $
KMDW 221553Z 04014KT 1 1/2SM -DZ BR OVC007 16/16 A2976 RMK AO2 RAE30DZB30 SLP074 P0000 T01610156
KMDW 221535Z 05011KT 1 3/4SM R31C/6000VP6000FT -DZ BR OVC007 16/16 A2976 RMK AO2 RAE30DZB30 P0000 T01610156
KMDW 221453Z 04014G19KT 8SM -RA OVC008 16/16 A2976 RMK AO2 SLP073 P0023 60072 T01610156 50003   
KMDW 221430Z 05013KT 3SM RA BR OVC008 16/16 A2976 RMK AO2 P0022 T01610156
KMDW 221413Z 04010KT 1 1/4SM +RA BR BKN007 OVC013 16/16 A2976 RMK AO2 P0018 T01610156
KMDW 221353Z 05011KT 3/4SM R31C/3000V6000FT +RA BR BKN007 OVC013 16/16 A2976 RMK AO2 SLP075 P0045 T01610156 
KMDW 221339Z 05011KT 3/4SM R31C/2400VP6000FT +RA BR OVC007 16/16 A2976 RMK AO2 P0014 T01610156
KMDW 221344Z 05012KT 1/2SM R31C/2400V3500FT +RA FG BKN007 OVC018 16/16 A2976 RMK AO2 P0027 T01610156
KMDW 221253Z 06013KT 6SM -RA BR OVC006 17/16 A2976 RMK AO2 SLP073 P0004 T01670156   
KMDW 221153Z 05013G22KT 6SM -RA BR BKN006 OVC010 17/16 A2975 RMK AO2 DZE36RAB36 SLP070 P0002 60030 70256 T01670161 10183 20167 51003
KMDW 221130Z 06013KT 5SM -DZ BR BKN008 OVC012 17/16 A2975 RMK AO2 P0000 T01670161
KMDW 221053Z 05012KT 5SM -DZ BR BKN011 OVC018 17/16 A2975 RMK AO2 RAE0957B20E52DZB0957E20B52 SLP069 P0006 T01670161 
KMDW 221026Z 05015KT 1 1/2SM -RA BR SCT011 BKN018 OVC026 17/16 A2975 RMK AO2 RAE0957B20DZB0957E20 P0004 T01670161
KMDW 221039Z 05014KT 2SM -RA BR FEW011 BKN018 OVC026 17/16 A2975 RMK AO2 RAE0957B20DZB0957E20 P0006 T01670161
KMDW 221020Z 05012KT 2SM -RA BR SCT012 BKN016 OVC027 17/16 A2974 RMK AO2 RAE0957B20DZB0957E20 P0003 T01670161
KMDW 220953Z 05014KT 5SM -RA BR OVC014 17/16 A2974 RMK AO2 RAE00B28DZB00E28 SLP067 P0004 T01720161